YFRT

Details ICAO YFRT
Name Forrest
Region Australia
Timezone Australia/Perth (UTC+8.0)
Plans Departing 6
Arriving 11
Stats Elevation 510 ft / 155 m (AMSL)
Location -30.838180° 128.114817°
Runways 2
Magnetic Variation 3.287° E
Sunrise 2017-12-13 20:19:47 UTC / 2017-12-14 04:19:47 Local
Sunset 2017-12-14 10:27:08 UTC / 2017-12-14 18:27:08 Local
Advertisement - Login to hide

Runways

ID Width Length Bearing (true) Bearing (mag) Surface Threshold Offset Overrun Length
18 148 ft / 45 m 4,999 ft / 1,524 m 179.60° 176.31° Asphalt 0 ft / 0 m 66 ft / 20 m
27 164 ft / 50 m 4,477 ft / 1,365 m 273.80° 270.51° Asphalt 0 ft / 0 m 26 ft / 8 m
36 148 ft / 45 m 4,999 ft / 1,524 m 359.60° 356.31° Asphalt 0 ft / 0 m 59 ft / 18 m
9 164 ft / 50 m 4,477 ft / 1,365 m 93.81° 90.52° Asphalt 0 ft / 0 m 62 ft / 19 m

Map

Weather


0- 5 10 15 20 25 30 35+ Temperature / ° C

Clouds and Precipitation
Forecast for 2017-12-14 00:00 UTC. Updated 2 hours ago

Ground ~20,000 ft ~40,000 ft Winds

METAR

YFRT 140030Z AUTO 19010KT //// // ////// 19/11 Q1017

TAF

TAF AMD YFRT 140034Z 1400/1414 18010KT 9999 SCT035 FM140200 17014KT CAVOK FM141200 13014KT CAVOK

Frequencies

Recorded 132.69 MHz MELBOURNE CNTR FSS
Unicom 126.70 MHz CTAF UNICOM UNIC
Warning: Do not use this data for real-world aviation or navigation. No guarantee of current accuracy is given.